Terminal Aerodrome Forecast
Issued by NWS

Home | Current Version | Previous Version | Text Only | Print | Product List | Glossary On
Versions: 1 2 3 4 5 6 7 8 9 10 11 12 13 14 15 16 17 18 19 20 21 22 23 24 25 26 27 28 29 30 31 32 33 34 35 36 37 38 39 40 41 42 43 44 45 46 47 48 49 50
311
FTUS43 KGRB 221354 AAA
TAFATW
TAF AMD
KATW 221354Z 2214/2312 21005KT P6SM -RA SCT009 OVC100
      TEMPO 2214/2215 4SM RA BR OVC008
     FM221500 24006KT 6SM SHRA OVC015
     FM222100 27005KT 5SM -SHRA SCT012 OVC022
     FM222300 30005KT P6SM -SHRA SCT018 OVC030
     FM230500 31009G18KT P6SM SHRA SCT015 OVC025
     FM230900 28008KT P6SM BKN035=

USA.gov is the U.S. government's official web portal to all federal, state and local government web resources and services.